sensor_id;sensor_type;location;lat;lon;timestamp;P1;durP1;ratioP1;P2;durP2;ratioP2
54388;SDS011;40975;50.390;8.640;2023-01-09T00:01:33;7.25;;;4.43;;
54388;SDS011;40975;50.390;8.640;2023-01-09T00:04:06;4.18;;;3.22;;
54388;SDS011;40975;50.390;8.640;2023-01-09T00:06:32;4.28;;;2.92;;
54388;SDS011;40975;50.390;8.640;2023-01-09T00:08:58;4.78;;;3.30;;
54388;SDS011;40975;50.390;8.640;2023-01-09T00:11:23;8.15;;;3.17;;
54388;SDS011;40975;50.390;8.640;2023-01-09T00:13:49;4.05;;;3.00;;
54388;SDS011;40975;50.390;8.640;2023-01-09T00:16:14;6.38;;;3.85;;
54388;SDS011;40975;50.390;8.640;2023-01-09T00:18:40;7.72;;;3.55;;
54388;SDS011;40975;50.390;8.640;2023-01-09T00:21:06;5.43;;;4.22;;
54388;SDS011;40975;50.390;8.640;2023-01-09T00:23:33;4.55;;;2.97;;
54388;SDS011;40975;50.390;8.640;2023-01-09T00:26:00;5.47;;;3.67;;
54388;SDS011;40975;50.390;8.640;2023-01-09T00:28:31;5.60;;;3.25;;
54388;SDS011;40975;50.390;8.640;2023-01-09T00:30:59;4.30;;;3.22;;
54388;SDS011;40975;50.390;8.640;2023-01-09T00:33:30;7.45;;;3.78;;
54388;SDS011;40975;50.390;8.640;2023-01-09T00:35:58;4.03;;;2.85;;
54388;SDS011;40975;50.390;8.640;2023-01-09T00:38:23;3.70;;;2.83;;
54388;SDS011;40975;50.390;8.640;2023-01-09T00:40:49;3.08;;;2.40;;
54388;SDS011;40975;50.390;8.640;2023-01-09T00:43:14;3.35;;;1.95;;
54388;SDS011;40975;50.390;8.640;2023-01-09T00:45:40;3.22;;;2.15;;
54388;SDS011;40975;50.390;8.640;2023-01-09T00:48:07;2.78;;;1.80;;
54388;SDS011;40975;50.390;8.640;2023-01-09T00:50:36;3.08;;;1.90;;
54388;SDS011;40975;50.390;8.640;2023-01-09T00:53:05;2.42;;;2.03;;
54388;SDS011;40975;50.390;8.640;2023-01-09T00:55:35;2.90;;;2.28;;
54388;SDS011;40975;50.390;8.640;2023-01-09T00:58:02;2.38;;;1.80;;
54388;SDS011;40975;50.390;8.640;2023-01-09T01:00:27;2.88;;;2.33;;
54388;SDS011;40975;50.390;8.640;2023-01-09T01:02:53;2.92;;;1.80;;
54388;SDS011;40975;50.390;8.640;2023-01-09T01:05:18;2.53;;;1.40;;
54388;SDS011;40975;50.390;8.640;2023-01-09T01:08:08;2.17;;;1.42;;
54388;SDS011;40975;50.390;8.640;2023-01-09T01:10:35;1.90;;;1.60;;
54388;SDS011;40975;50.390;8.640;2023-01-09T01:13:00;1.30;;;1.08;;
54388;SDS011;40975;50.390;8.640;2023-01-09T01:15:25;3.15;;;1.13;;
54388;SDS011;40975;50.390;8.640;2023-01-09T01:17:53;1.63;;;1.25;;
54388;SDS011;40975;50.390;8.640;2023-01-09T01:20:19;2.22;;;1.23;;
54388;SDS011;40975;50.390;8.640;2023-01-09T01:22:45;1.92;;;1.40;;
54388;SDS011;40975;50.390;8.640;2023-01-09T01:25:11;0.90;;;0.90;;
54388;SDS011;40975;50.390;8.640;2023-01-09T01:27:38;1.42;;;1.17;;
54388;SDS011;40975;50.390;8.640;2023-01-09T01:30:05;1.13;;;0.80;;
54388;SDS011;40975;50.390;8.640;2023-01-09T01:32:31;0.80;;;0.80;;
54388;SDS011;40975;50.390;8.640;2023-01-09T01:34:56;1.00;;;1.00;;
54388;SDS011;40975;50.390;8.640;2023-01-09T01:37:22;0.77;;;0.60;;
54388;SDS011;40975;50.390;8.640;2023-01-09T01:39:47;1.05;;;0.70;;
54388;SDS011;40975;50.390;8.640;2023-01-09T01:42:12;1.77;;;0.70;;
54388;SDS011;40975;50.390;8.640;2023-01-09T01:53:18;0.43;;;0.43;;
54388;SDS011;40975;50.390;8.640;2023-01-09T01:56:03;0.57;;;0.40;;
54388;SDS011;40975;50.390;8.640;2023-01-09T01:58:35;0.50;;;0.40;;
54388;SDS011;40975;50.390;8.640;2023-01-09T02:01:05;0.52;;;0.30;;
54388;SDS011;40975;50.390;8.640;2023-01-09T02:03:31;0.30;;;0.30;;
54388;SDS011;40975;50.390;8.640;2023-01-09T02:05:58;0.30;;;0.28;;
54388;SDS011;40975;50.390;8.640;2023-01-09T02:08:23;0.45;;;0.43;;
54388;SDS011;40975;50.390;8.640;2023-01-09T02:10:49;0.60;;;0.40;;
54388;SDS011;40975;50.390;8.640;2023-01-09T02:13:15;0.40;;;0.30;;
54388;SDS011;40975;50.390;8.640;2023-01-09T02:15:52;1.13;;;0.40;;
54388;SDS011;40975;50.390;8.640;2023-01-09T02:20:55;2.38;;;0.30;;
54388;SDS011;40975;50.390;8.640;2023-01-09T02:23:30;0.32;;;0.30;;
54388;SDS011;40975;50.390;8.640;2023-01-09T02:26:30;0.50;;;0.38;;
54388;SDS011;40975;50.390;8.640;2023-01-09T02:37:59;0.47;;;0.30;;
54388;SDS011;40975;50.390;8.640;2023-01-09T02:43:12;0.93;;;0.40;;
54388;SDS011;40975;50.390;8.640;2023-01-09T02:45:37;0.20;;;0.20;;
54388;SDS011;40975;50.390;8.640;2023-01-09T02:48:03;0.20;;;0.20;;
54388;SDS011;40975;50.390;8.640;2023-01-09T02:50:35;0.30;;;0.30;;
54388;SDS011;40975;50.390;8.640;2023-01-09T03:01:35;0.30;;;0.30;;
54388;SDS011;40975;50.390;8.640;2023-01-09T03:09:48;0.30;;;0.20;;
54388;SDS011;40975;50.390;8.640;2023-01-09T03:12:19;0.20;;;0.20;;
54388;SDS011;40975;50.390;8.640;2023-01-09T03:14:47;0.40;;;0.10;;
54388;SDS011;40975;50.390;8.640;2023-01-09T03:17:18;0.20;;;0.17;;
54388;SDS011;40975;50.390;8.640;2023-01-09T03:19:49;0.10;;;0.10;;
54388;SDS011;40975;50.390;8.640;2023-01-09T03:22:17;0.10;;;0.10;;
54388;SDS011;40975;50.390;8.640;2023-01-09T03:24:43;0.00;;;0.00;;
54388;SDS011;40975;50.390;8.640;2023-01-09T03:27:08;0.10;;;0.10;;
54388;SDS011;40975;50.390;8.640;2023-01-09T03:29:34;0.10;;;0.10;;
54388;SDS011;40975;50.390;8.640;2023-01-09T03:31:59;0.20;;;0.10;;
54388;SDS011;40975;50.390;8.640;2023-01-09T03:34:25;0.05;;;0.05;;
54388;SDS011;40975;50.390;8.640;2023-01-09T03:36:50;0.10;;;0.10;;
54388;SDS011;40975;50.390;8.640;2023-01-09T03:39:15;0.10;;;0.10;;
54388;SDS011;40975;50.390;8.640;2023-01-09T03:41:41;0.10;;;0.10;;
54388;SDS011;40975;50.390;8.640;2023-01-09T03:44:06;0.10;;;0.10;;
54388;SDS011;40975;50.390;8.640;2023-01-09T03:46:31;0.85;;;0.17;;
54388;SDS011;40975;50.390;8.640;2023-01-09T03:48:57;0.68;;;0.10;;
54388;SDS011;40975;50.390;8.640;2023-01-09T03:51:22;0.10;;;0.10;;
54388;SDS011;40975;50.390;8.640;2023-01-09T03:53:47;0.10;;;0.10;;
54388;SDS011;40975;50.390;8.640;2023-01-09T03:56:13;0.10;;;0.10;;
54388;SDS011;40975;50.390;8.640;2023-01-09T03:58:39;0.35;;;0.10;;
54388;SDS011;40975;50.390;8.640;2023-01-09T04:01:04;0.10;;;0.10;;
54388;SDS011;40975;50.390;8.640;2023-01-09T04:03:33;0.20;;;0.20;;
54388;SDS011;40975;50.390;8.640;2023-01-09T04:05:59;0.20;;;0.20;;
54388;SDS011;40975;50.390;8.640;2023-01-09T04:08:25;0.10;;;0.10;;
54388;SDS011;40975;50.390;8.640;2023-01-09T04:10:50;0.10;;;0.10;;
54388;SDS011;40975;50.390;8.640;2023-01-09T04:13:16;0.10;;;0.10;;
54388;SDS011;40975;50.390;8.640;2023-01-09T04:15:41;0.00;;;0.00;;
54388;SDS011;40975;50.390;8.640;2023-01-09T04:18:07;0.30;;;0.20;;
54388;SDS011;40975;50.390;8.640;2023-01-09T04:20:32;0.32;;;0.10;;
54388;SDS011;40975;50.390;8.640;2023-01-09T04:22:57;0.10;;;0.10;;
54388;SDS011;40975;50.390;8.640;2023-01-09T04:25:23;0.35;;;0.17;;
54388;SDS011;40975;50.390;8.640;2023-01-09T04:27:49;1.38;;;0.10;;
54388;SDS011;40975;50.390;8.640;2023-01-09T04:30:15;0.20;;;0.10;;
54388;SDS011;40975;50.390;8.640;2023-01-09T04:32:40;0.20;;;0.20;;
54388;SDS011;40975;50.390;8.640;2023-01-09T04:35:06;0.10;;;0.10;;
54388;SDS011;40975;50.390;8.640;2023-01-09T04:37:32;0.30;;;0.20;;
54388;SDS011;40975;50.390;8.640;2023-01-09T04:39:57;0.50;;;0.25;;
54388;SDS011;40975;50.390;8.640;2023-01-09T04:42:22;0.32;;;0.32;;
54388;SDS011;40975;50.390;8.640;2023-01-09T04:44:48;0.43;;;0.20;;
54388;SDS011;40975;50.390;8.640;2023-01-09T04:47:17;0.10;;;0.10;;
54388;SDS011;40975;50.390;8.640;2023-01-09T04:49:43;0.10;;;0.10;;
54388;SDS011;40975;50.390;8.640;2023-01-09T04:52:09;0.52;;;0.20;;
54388;SDS011;40975;50.390;8.640;2023-01-09T04:54:34;0.43;;;0.43;;
54388;SDS011;40975;50.390;8.640;2023-01-09T04:56:59;0.20;;;0.20;;
54388;SDS011;40975;50.390;8.640;2023-01-09T04:59:25;0.10;;;0.10;;
54388;SDS011;40975;50.390;8.640;2023-01-09T05:01:50;0.08;;;0.00;;
54388;SDS011;40975;50.390;8.640;2023-01-09T05:04:16;0.43;;;0.20;;
54388;SDS011;40975;50.390;8.640;2023-01-09T05:06:41;0.15;;;0.15;;
54388;SDS011;40975;50.390;8.640;2023-01-09T05:09:07;0.10;;;0.10;;
54388;SDS011;40975;50.390;8.640;2023-01-09T05:11:32;0.30;;;0.20;;
54388;SDS011;40975;50.390;8.640;2023-01-09T05:13:57;0.32;;;0.10;;
54388;SDS011;40975;50.390;8.640;2023-01-09T05:16:23;1.45;;;0.20;;
54388;SDS011;40975;50.390;8.640;2023-01-09T05:18:48;0.10;;;0.10;;
54388;SDS011;40975;50.390;8.640;2023-01-09T05:21:13;1.10;;;0.10;;
54388;SDS011;40975;50.390;8.640;2023-01-09T05:23:39;0.10;;;0.10;;
54388;SDS011;40975;50.390;8.640;2023-01-09T05:26:04;0.15;;;0.15;;
54388;SDS011;40975;50.390;8.640;2023-01-09T05:28:30;0.15;;;0.15;;
54388;SDS011;40975;50.390;8.640;2023-01-09T05:30:56;0.20;;;0.20;;
54388;SDS011;40975;50.390;8.640;2023-01-09T05:33:22;0.20;;;0.20;;
54388;SDS011;40975;50.390;8.640;2023-01-09T05:35:47;2.00;;;0.22;;
54388;SDS011;40975;50.390;8.640;2023-01-09T05:38:13;0.20;;;0.20;;
54388;SDS011;40975;50.390;8.640;2023-01-09T05:40:39;0.10;;;0.10;;
54388;SDS011;40975;50.390;8.640;2023-01-09T05:43:04;0.52;;;0.30;;
54388;SDS011;40975;50.390;8.640;2023-01-09T05:45:29;0.43;;;0.20;;
54388;SDS011;40975;50.390;8.640;2023-01-09T05:47:54;0.20;;;0.20;;
54388;SDS011;40975;50.390;8.640;2023-01-09T05:50:20;0.57;;;0.10;;
54388;SDS011;40975;50.390;8.640;2023-01-09T05:52:45;0.35;;;0.17;;
54388;SDS011;40975;50.390;8.640;2023-01-09T05:55:11;0.08;;;0.08;;
54388;SDS011;40975;50.390;8.640;2023-01-09T05:57:37;0.60;;;0.15;;
54388;SDS011;40975;50.390;8.640;2023-01-09T06:00:02;1.33;;;0.22;;
54388;SDS011;40975;50.390;8.640;2023-01-09T06:02:31;0.82;;;0.15;;
54388;SDS011;40975;50.390;8.640;2023-01-09T06:04:57;0.52;;;0.30;;
54388;SDS011;40975;50.390;8.640;2023-01-09T06:07:22;0.22;;;0.20;;
54388;SDS011;40975;50.390;8.640;2023-01-09T06:09:47;2.17;;;0.40;;
54388;SDS011;40975;50.390;8.640;2023-01-09T06:12:13;0.17;;;0.17;;
54388;SDS011;40975;50.390;8.640;2023-01-09T06:14:38;0.55;;;0.25;;
54388;SDS011;40975;50.390;8.640;2023-01-09T06:17:03;1.08;;;0.30;;
54388;SDS011;40975;50.390;8.640;2023-01-09T06:19:29;2.28;;;0.50;;
54388;SDS011;40975;50.390;8.640;2023-01-09T06:21:54;0.10;;;0.10;;
54388;SDS011;40975;50.390;8.640;2023-01-09T06:24:19;0.20;;;0.20;;
54388;SDS011;40975;50.390;8.640;2023-01-09T06:26:45;0.20;;;0.20;;
54388;SDS011;40975;50.390;8.640;2023-01-09T06:29:10;3.50;;;0.30;;
54388;SDS011;40975;50.390;8.640;2023-01-09T06:31:36;1.15;;;0.25;;
54388;SDS011;40975;50.390;8.640;2023-01-09T06:34:01;1.15;;;0.65;;
54388;SDS011;40975;50.390;8.640;2023-01-09T06:36:26;0.17;;;0.17;;
54388;SDS011;40975;50.390;8.640;2023-01-09T06:38:52;0.30;;;0.30;;
54388;SDS011;40975;50.390;8.640;2023-01-09T06:41:17;0.28;;;0.20;;
54388;SDS011;40975;50.390;8.640;2023-01-09T06:43:43;1.00;;;0.40;;
54388;SDS011;40975;50.390;8.640;2023-01-09T06:46:08;1.05;;;0.38;;
54388;SDS011;40975;50.390;8.640;2023-01-09T06:48:34;2.47;;;0.30;;
54388;SDS011;40975;50.390;8.640;2023-01-09T06:51:00;0.38;;;0.38;;
54388;SDS011;40975;50.390;8.640;2023-01-09T06:53:25;1.98;;;0.55;;
54388;SDS011;40975;50.390;8.640;2023-01-09T06:55:51;3.72;;;0.50;;
54388;SDS011;40975;50.390;8.640;2023-01-09T06:58:17;1.38;;;0.60;;
54388;SDS011;40975;50.390;8.640;2023-01-09T07:00:42;3.47;;;0.60;;
54388;SDS011;40975;50.390;8.640;2023-01-09T07:03:07;2.03;;;0.60;;
54388;SDS011;40975;50.390;8.640;2023-01-09T07:05:36;1.02;;;0.40;;
54388;SDS011;40975;50.390;8.640;2023-01-09T07:08:04;3.40;;;0.40;;
54388;SDS011;40975;50.390;8.640;2023-01-09T07:10:30;1.58;;;0.52;;
54388;SDS011;40975;50.390;8.640;2023-01-09T07:12:55;1.70;;;0.35;;
54388;SDS011;40975;50.390;8.640;2023-01-09T07:15:21;0.65;;;0.40;;
54388;SDS011;40975;50.390;8.640;2023-01-09T07:17:47;0.30;;;0.30;;
54388;SDS011;40975;50.390;8.640;2023-01-09T07:20:14;1.33;;;0.30;;
54388;SDS011;40975;50.390;8.640;2023-01-09T07:22:40;2.80;;;0.40;;
54388;SDS011;40975;50.390;8.640;2023-01-09T07:25:05;2.15;;;0.52;;
54388;SDS011;40975;50.390;8.640;2023-01-09T07:27:31;2.50;;;0.73;;
54388;SDS011;40975;50.390;8.640;2023-01-09T07:29:56;1.10;;;0.40;;
54388;SDS011;40975;50.390;8.640;2023-01-09T07:32:22;1.23;;;0.25;;
54388;SDS011;40975;50.390;8.640;2023-01-09T07:34:47;2.15;;;0.45;;
54388;SDS011;40975;50.390;8.640;2023-01-09T07:37:13;1.83;;;0.40;;
54388;SDS011;40975;50.390;8.640;2023-01-09T07:39:38;3.35;;;0.40;;
54388;SDS011;40975;50.390;8.640;2023-01-09T07:42:04;1.55;;;0.50;;
54388;SDS011;40975;50.390;8.640;2023-01-09T07:44:29;2.70;;;0.50;;
54388;SDS011;40975;50.390;8.640;2023-01-09T07:46:54;1.13;;;0.75;;
54388;SDS011;40975;50.390;8.640;2023-01-09T07:49:20;1.63;;;0.57;;
54388;SDS011;40975;50.390;8.640;2023-01-09T07:51:45;1.67;;;0.38;;
54388;SDS011;40975;50.390;8.640;2023-01-09T07:54:12;0.30;;;0.28;;
54388;SDS011;40975;50.390;8.640;2023-01-09T07:56:38;0.90;;;0.40;;
54388;SDS011;40975;50.390;8.640;2023-01-09T07:59:04;2.38;;;0.40;;
54388;SDS011;40975;50.390;8.640;2023-01-09T08:01:29;1.00;;;0.28;;
54388;SDS011;40975;50.390;8.640;2023-01-09T08:03:54;0.73;;;0.52;;
54388;SDS011;40975;50.390;8.640;2023-01-09T08:06:20;2.58;;;0.57;;
54388;SDS011;40975;50.390;8.640;2023-01-09T08:08:45;0.90;;;0.28;;
54388;SDS011;40975;50.390;8.640;2023-01-09T08:11:10;0.47;;;0.30;;
54388;SDS011;40975;50.390;8.640;2023-01-09T08:13:36;2.25;;;0.40;;
54388;SDS011;40975;50.390;8.640;2023-01-09T08:16:01;1.98;;;0.30;;
54388;SDS011;40975;50.390;8.640;2023-01-09T08:18:26;0.43;;;0.30;;
54388;SDS011;40975;50.390;8.640;2023-01-09T08:20:52;0.15;;;0.15;;
54388;SDS011;40975;50.390;8.640;2023-01-09T08:23:17;0.20;;;0.20;;
54388;SDS011;40975;50.390;8.640;2023-01-09T08:25:42;2.35;;;0.47;;
54388;SDS011;40975;50.390;8.640;2023-01-09T08:28:08;0.95;;;0.20;;
54388;SDS011;40975;50.390;8.640;2023-01-09T08:30:33;0.52;;;0.32;;
54388;SDS011;40975;50.390;8.640;2023-01-09T08:32:59;2.22;;;0.50;;
54388;SDS011;40975;50.390;8.640;2023-01-09T08:35:24;0.47;;;0.45;;
54388;SDS011;40975;50.390;8.640;2023-01-09T08:37:49;0.20;;;0.20;;
54388;SDS011;40975;50.390;8.640;2023-01-09T08:40:15;0.20;;;0.20;;
54388;SDS011;40975;50.390;8.640;2023-01-09T08:42:41;0.60;;;0.30;;
54388;SDS011;40975;50.390;8.640;2023-01-09T08:45:25;0.20;;;0.20;;
54388;SDS011;40975;50.390;8.640;2023-01-09T08:48:09;0.30;;;0.20;;
54388;SDS011;40975;50.390;8.640;2023-01-09T08:50:34;0.47;;;0.20;;
54388;SDS011;40975;50.390;8.640;2023-01-09T08:52:59;0.30;;;0.30;;
54388;SDS011;40975;50.390;8.640;2023-01-09T08:55:25;0.63;;;0.40;;
54388;SDS011;40975;50.390;8.640;2023-01-09T08:57:50;0.88;;;0.40;;
54388;SDS011;40975;50.390;8.640;2023-01-09T09:00:17;1.85;;;0.25;;
54388;SDS011;40975;50.390;8.640;2023-01-09T09:02:44;0.52;;;0.28;;
54388;SDS011;40975;50.390;8.640;2023-01-09T09:05:09;0.28;;;0.20;;
54388;SDS011;40975;50.390;8.640;2023-01-09T09:07:35;1.65;;;0.35;;
54388;SDS011;40975;50.390;8.640;2023-01-09T09:10:01;1.33;;;0.17;;
54388;SDS011;40975;50.390;8.640;2023-01-09T09:12:26;0.38;;;0.20;;
54388;SDS011;40975;50.390;8.640;2023-01-09T09:14:51;0.35;;;0.20;;
54388;SDS011;40975;50.390;8.640;2023-01-09T09:17:47;0.30;;;0.30;;
54388;SDS011;40975;50.390;8.640;2023-01-09T09:20:13;0.30;;;0.30;;
54388;SDS011;40975;50.390;8.640;2023-01-09T09:22:39;0.73;;;0.40;;
54388;SDS011;40975;50.390;8.640;2023-01-09T09:25:04;0.93;;;0.47;;
54388;SDS011;40975;50.390;8.640;2023-01-09T09:27:31;0.20;;;0.20;;
54388;SDS011;40975;50.390;8.640;2023-01-09T09:29:56;1.75;;;0.52;;
54388;SDS011;40975;50.390;8.640;2023-01-09T09:32:21;0.28;;;0.28;;
54388;SDS011;40975;50.390;8.640;2023-01-09T09:34:47;0.10;;;0.10;;
54388;SDS011;40975;50.390;8.640;2023-01-09T09:37:12;1.48;;;0.30;;
54388;SDS011;40975;50.390;8.640;2023-01-09T09:39:37;0.63;;;0.30;;
54388;SDS011;40975;50.390;8.640;2023-01-09T09:45:29;0.95;;;0.35;;
54388;SDS011;40975;50.390;8.640;2023-01-09T09:48:16;0.98;;;0.35;;
54388;SDS011;40975;50.390;8.640;2023-01-09T09:53:50;0.65;;;0.20;;
54388;SDS011;40975;50.390;8.640;2023-01-09T09:56:24;1.15;;;0.40;;
54388;SDS011;40975;50.390;8.640;2023-01-09T09:59:01;1.50;;;0.40;;
54388;SDS011;40975;50.390;8.640;2023-01-09T10:04:32;0.40;;;0.20;;
54388;SDS011;40975;50.390;8.640;2023-01-09T10:07:04;1.00;;;0.50;;
54388;SDS011;40975;50.390;8.640;2023-01-09T10:09:47;1.02;;;0.30;;
54388;SDS011;40975;50.390;8.640;2023-01-09T10:15:17;2.63;;;0.45;;
54388;SDS011;40975;50.390;8.640;2023-01-09T10:17:55;1.55;;;0.40;;
54388;SDS011;40975;50.390;8.640;2023-01-09T10:20:47;0.20;;;0.20;;
54388;SDS011;40975;50.390;8.640;2023-01-09T10:26:06;0.15;;;0.15;;
54388;SDS011;40975;50.390;8.640;2023-01-09T10:36:58;0.40;;;0.10;;
54388;SDS011;40975;50.390;8.640;2023-01-09T10:39:44;0.10;;;0.00;;
54388;SDS011;40975;50.390;8.640;2023-01-09T10:42:21;0.90;;;0.20;;
54388;SDS011;40975;50.390;8.640;2023-01-09T10:47:31;1.13;;;0.40;;
54388;SDS011;40975;50.390;8.640;2023-01-09T10:49:58;0.30;;;0.20;;
54388;SDS011;40975;50.390;8.640;2023-01-09T10:52:32;0.60;;;0.13;;
54388;SDS011;40975;50.390;8.640;2023-01-09T10:55:18;0.00;;;0.00;;
54388;SDS011;40975;50.390;8.640;2023-01-09T10:57:53;0.00;;;0.00;;
54388;SDS011;40975;50.390;8.640;2023-01-09T11:00:25;0.20;;;0.20;;
54388;SDS011;40975;50.390;8.640;2023-01-09T11:02:51;0.20;;;0.10;;
54388;SDS011;40975;50.390;8.640;2023-01-09T11:05:18;0.43;;;0.20;;
54388;SDS011;40975;50.390;8.640;2023-01-09T11:08:33;0.20;;;0.10;;
54388;SDS011;40975;50.390;8.640;2023-01-09T11:10:47;0.63;;;0.15;;
54388;SDS011;40975;50.390;8.640;2023-01-09T11:13:13;0.10;;;0.10;;
54388;SDS011;40975;50.390;8.640;2023-01-09T11:15:41;0.43;;;0.32;;
54388;SDS011;40975;50.390;8.640;2023-01-09T11:18:20;0.63;;;0.40;;
54388;SDS011;40975;50.390;8.640;2023-01-09T11:20:48;0.50;;;0.10;;
54388;SDS011;40975;50.390;8.640;2023-01-09T11:23:24;0.20;;;0.20;;
54388;SDS011;40975;50.390;8.640;2023-01-09T11:25:58;0.75;;;0.35;;
54388;SDS011;40975;50.390;8.640;2023-01-09T11:28:25;0.57;;;0.30;;
54388;SDS011;40975;50.390;8.640;2023-01-09T11:30:52;0.63;;;0.20;;
54388;SDS011;40975;50.390;8.640;2023-01-09T11:33:33;0.30;;;0.10;;
54388;SDS011;40975;50.390;8.640;2023-01-09T11:36:02;0.22;;;0.10;;
54388;SDS011;40975;50.390;8.640;2023-01-09T11:38:32;0.55;;;0.10;;
54388;SDS011;40975;50.390;8.640;2023-01-09T11:41:14;0.10;;;0.10;;
54388;SDS011;40975;50.390;8.640;2023-01-09T11:43:43;0.40;;;0.20;;
54388;SDS011;40975;50.390;8.640;2023-01-09T11:46:11;0.13;;;0.10;;
54388;SDS011;40975;50.390;8.640;2023-01-09T11:49:19;0.75;;;0.20;;
54388;SDS011;40975;50.390;8.640;2023-01-09T11:54:51;0.30;;;0.10;;
54388;SDS011;40975;50.390;8.640;2023-01-09T11:57:21;0.20;;;0.10;;
54388;SDS011;40975;50.390;8.640;2023-01-09T11:59:48;1.20;;;0.25;;
54388;SDS011;40975;50.390;8.640;2023-01-09T12:04:57;0.30;;;0.10;;
54388;SDS011;40975;50.390;8.640;2023-01-09T12:07:35;0.10;;;0.10;;
54388;SDS011;40975;50.390;8.640;2023-01-09T12:13:06;0.10;;;0.10;;
54388;SDS011;40975;50.390;8.640;2023-01-09T12:21:47;0.30;;;0.10;;
54388;SDS011;40975;50.390;8.640;2023-01-09T12:29:39;0.77;;;0.20;;
54388;SDS011;40975;50.390;8.640;2023-01-09T12:48:18;0.10;;;0.10;;
54388;SDS011;40975;50.390;8.640;2023-01-09T12:51:08;0.50;;;0.20;;
54388;SDS011;40975;50.390;8.640;2023-01-09T12:53:46;2.67;;;0.40;;
54388;SDS011;40975;50.390;8.640;2023-01-09T12:56:20;0.38;;;0.20;;
54388;SDS011;40975;50.390;8.640;2023-01-09T12:58:51;1.50;;;0.30;;
54388;SDS011;40975;50.390;8.640;2023-01-09T13:01:23;0.08;;;0.00;;
54388;SDS011;40975;50.390;8.640;2023-01-09T13:04:02;1.15;;;0.28;;
54388;SDS011;40975;50.390;8.640;2023-01-09T13:06:30;0.10;;;0.10;;
54388;SDS011;40975;50.390;8.640;2023-01-09T13:11:45;0.57;;;0.20;;
54388;SDS011;40975;50.390;8.640;2023-01-09T13:14:43;1.00;;;0.15;;
54388;SDS011;40975;50.390;8.640;2023-01-09T13:17:15;1.20;;;0.55;;
54388;SDS011;40975;50.390;8.640;2023-01-09T13:19:45;0.10;;;0.10;;
54388;SDS011;40975;50.390;8.640;2023-01-09T13:22:11;0.30;;;0.20;;
54388;SDS011;40975;50.390;8.640;2023-01-09T13:27:24;1.08;;;0.30;;
54388;SDS011;40975;50.390;8.640;2023-01-09T13:29:59;2.17;;;0.40;;
54388;SDS011;40975;50.390;8.640;2023-01-09T13:32:53;1.55;;;0.10;;
54388;SDS011;40975;50.390;8.640;2023-01-09T13:35:27;0.40;;;0.25;;
54388;SDS011;40975;50.390;8.640;2023-01-09T13:37:53;0.20;;;0.20;;
54388;SDS011;40975;50.390;8.640;2023-01-09T13:42:43;1.58;;;0.20;;
54388;SDS011;40975;50.390;8.640;2023-01-09T13:45:22;2.05;;;0.20;;
54388;SDS011;40975;50.390;8.640;2023-01-09T13:50:41;1.13;;;0.35;;
54388;SDS011;40975;50.390;8.640;2023-01-09T13:53:53;0.40;;;0.20;;
54388;SDS011;40975;50.390;8.640;2023-01-09T13:56:03;1.27;;;0.30;;
54388;SDS011;40975;50.390;8.640;2023-01-09T14:01:03;0.50;;;0.20;;
54388;SDS011;40975;50.390;8.640;2023-01-09T14:06:36;0.70;;;0.43;;
54388;SDS011;40975;50.390;8.640;2023-01-09T14:11:40;1.13;;;0.50;;
54388;SDS011;40975;50.390;8.640;2023-01-09T14:14:13;1.67;;;0.73;;
54388;SDS011;40975;50.390;8.640;2023-01-09T14:16:46;1.27;;;0.70;;
54388;SDS011;40975;50.390;8.640;2023-01-09T14:21:43;5.43;;;2.40;;
54388;SDS011;40975;50.390;8.640;2023-01-09T14:24:11;6.82;;;2.50;;
54388;SDS011;40975;50.390;8.640;2023-01-09T14:26:45;4.20;;;0.90;;
54388;SDS011;40975;50.390;8.640;2023-01-09T14:34:49;1.15;;;0.38;;
54388;SDS011;40975;50.390;8.640;2023-01-09T14:37:18;2.45;;;1.10;;
54388;SDS011;40975;50.390;8.640;2023-01-09T14:39:44;0.10;;;0.10;;
54388;SDS011;40975;50.390;8.640;2023-01-09T14:42:10;2.67;;;0.43;;
54388;SDS011;40975;50.390;8.640;2023-01-09T14:44:44;3.35;;;0.30;;
54388;SDS011;40975;50.390;8.640;2023-01-09T14:47:16;0.73;;;0.32;;
54388;SDS011;40975;50.390;8.640;2023-01-09T14:49:57;0.80;;;0.30;;
54388;SDS011;40975;50.390;8.640;2023-01-09T14:52:34;1.75;;;0.28;;
54388;SDS011;40975;50.390;8.640;2023-01-09T14:55:04;0.45;;;0.38;;
54388;SDS011;40975;50.390;8.640;2023-01-09T14:57:39;1.48;;;0.22;;
54388;SDS011;40975;50.390;8.640;2023-01-09T15:00:11;0.10;;;0.10;;
54388;SDS011;40975;50.390;8.640;2023-01-09T15:02:39;0.65;;;0.20;;
54388;SDS011;40975;50.390;8.640;2023-01-09T15:05:11;0.50;;;0.10;;
54388;SDS011;40975;50.390;8.640;2023-01-09T15:08:04;0.13;;;0.10;;
54388;SDS011;40975;50.390;8.640;2023-01-09T15:10:30;0.22;;;0.10;;
54388;SDS011;40975;50.390;8.640;2023-01-09T15:12:57;1.25;;;0.20;;
54388;SDS011;40975;50.390;8.640;2023-01-09T15:15:25;0.32;;;0.20;;
54388;SDS011;40975;50.390;8.640;2023-01-09T15:17:58;0.28;;;0.17;;
54388;SDS011;40975;50.390;8.640;2023-01-09T15:20:26;0.43;;;0.20;;
54388;SDS011;40975;50.390;8.640;2023-01-09T15:22:55;0.30;;;0.20;;
54388;SDS011;40975;50.390;8.640;2023-01-09T15:27:55;0.13;;;0.13;;
54388;SDS011;40975;50.390;8.640;2023-01-09T15:32:53;0.43;;;0.20;;
54388;SDS011;40975;50.390;8.640;2023-01-09T15:35:20;0.73;;;0.17;;
54388;SDS011;40975;50.390;8.640;2023-01-09T15:37:46;1.45;;;0.30;;
54388;SDS011;40975;50.390;8.640;2023-01-09T15:40:21;0.50;;;0.20;;
54388;SDS011;40975;50.390;8.640;2023-01-09T15:42:52;0.45;;;0.20;;
54388;SDS011;40975;50.390;8.640;2023-01-09T15:45:39;2.05;;;0.10;;
54388;SDS011;40975;50.390;8.640;2023-01-09T15:51:07;5.57;;;0.30;;
54388;SDS011;40975;50.390;8.640;2023-01-09T15:53:36;0.50;;;0.30;;
54388;SDS011;40975;50.390;8.640;2023-01-09T15:58:41;0.60;;;0.28;;
54388;SDS011;40975;50.390;8.640;2023-01-09T16:01:20;0.98;;;0.40;;
54388;SDS011;40975;50.390;8.640;2023-01-09T16:03:52;1.75;;;0.20;;
54388;SDS011;40975;50.390;8.640;2023-01-09T16:06:26;1.08;;;0.35;;
54388;SDS011;40975;50.390;8.640;2023-01-09T16:08:53;0.98;;;0.25;;
54388;SDS011;40975;50.390;8.640;2023-01-09T16:11:25;1.65;;;0.13;;
54388;SDS011;40975;50.390;8.640;2023-01-09T16:16:43;2.47;;;0.40;;
54388;SDS011;40975;50.390;8.640;2023-01-09T16:21:57;1.10;;;0.30;;
54388;SDS011;40975;50.390;8.640;2023-01-09T16:24:24;0.47;;;0.32;;
54388;SDS011;40975;50.390;8.640;2023-01-09T16:30:04;0.35;;;0.20;;
54388;SDS011;40975;50.390;8.640;2023-01-09T16:35:17;1.20;;;0.20;;
54388;SDS011;40975;50.390;8.640;2023-01-09T16:37:44;0.52;;;0.10;;
54388;SDS011;40975;50.390;8.640;2023-01-09T16:42:42;1.40;;;0.20;;
54388;SDS011;40975;50.390;8.640;2023-01-09T16:45:37;0.73;;;0.30;;
54388;SDS011;40975;50.390;8.640;2023-01-09T16:48:09;1.45;;;0.20;;
54388;SDS011;40975;50.390;8.640;2023-01-09T16:50:37;0.22;;;0.22;;
54388;SDS011;40975;50.390;8.640;2023-01-09T16:53:37;0.25;;;0.20;;
54388;SDS011;40975;50.390;8.640;2023-01-09T16:55:58;0.80;;;0.30;;
54388;SDS011;40975;50.390;8.640;2023-01-09T16:58:30;0.60;;;0.30;;
54388;SDS011;40975;50.390;8.640;2023-01-09T17:00:58;0.65;;;0.22;;
54388;SDS011;40975;50.390;8.640;2023-01-09T17:03:24;0.10;;;0.03;;
54388;SDS011;40975;50.390;8.640;2023-01-09T17:05:56;0.73;;;0.22;;
54388;SDS011;40975;50.390;8.640;2023-01-09T17:08:30;0.88;;;0.45;;
54388;SDS011;40975;50.390;8.640;2023-01-09T17:10:58;2.92;;;0.75;;
54388;SDS011;40975;50.390;8.640;2023-01-09T17:13:24;0.65;;;0.20;;
54388;SDS011;40975;50.390;8.640;2023-01-09T17:15:53;0.38;;;0.20;;
54388;SDS011;40975;50.390;8.640;2023-01-09T17:18:22;1.00;;;0.47;;
54388;SDS011;40975;50.390;8.640;2023-01-09T17:20:49;0.82;;;0.50;;
54388;SDS011;40975;50.390;8.640;2023-01-09T17:23:17;2.13;;;0.50;;
54388;SDS011;40975;50.390;8.640;2023-01-09T17:25:44;2.78;;;0.40;;
54388;SDS011;40975;50.390;8.640;2023-01-09T17:28:29;0.85;;;0.50;;
54388;SDS011;40975;50.390;8.640;2023-01-09T17:31:08;1.95;;;0.43;;